createdAt,value
2022-10-04T00:01:13.157Z,9.27
2022-10-04T00:04:09.391Z,9.22
2022-10-04T00:06:43.489Z,9.21
2022-10-04T00:09:19.293Z,9.21
2022-10-04T00:11:48.220Z,9.19
2022-10-04T00:14:22.603Z,9.23
2022-10-04T00:16:49.875Z,9.26
2022-10-04T00:19:16.398Z,9.35
2022-10-04T00:21:52.509Z,9.38
2022-10-04T00:24:28.218Z,9.33
2022-10-04T00:27:18.981Z,9.30
2022-10-04T00:30:01.644Z,9.32
2022-10-04T00:32:40.685Z,9.22
2022-10-04T00:35:25.748Z,9.17
2022-10-04T00:37:58.460Z,9.07
2022-10-04T00:40:33.866Z,9.07
2022-10-04T00:43:34.176Z,9.03
2022-10-04T00:46:22.570Z,9.04
2022-10-04T00:48:56.449Z,8.93
2022-10-04T00:51:34.453Z,9.01
2022-10-04T00:54:20.049Z,9.03
2022-10-04T00:56:53.880Z,8.99
2022-10-04T00:59:33.548Z,9.00
2022-10-04T01:02:17.678Z,9.02
2022-10-04T01:05:15.882Z,9.05
2022-10-04T01:07:46.716Z,9.01
2022-10-04T01:10:41.815Z,8.88
2022-10-04T01:13:45.952Z,8.95
2022-10-04T01:16:30.570Z,8.94
2022-10-04T01:19:23.327Z,8.90
2022-10-04T01:22:05.436Z,8.93
2022-10-04T01:24:36.989Z,8.80
2022-10-04T01:27:04.074Z,8.87
2022-10-04T01:29:32.425Z,8.87
2022-10-04T01:32:01.514Z,8.74
2022-10-04T01:34:30.432Z,8.76
2022-10-04T01:36:59.750Z,8.66
2022-10-04T01:39:28.251Z,8.58
2022-10-04T01:42:08.672Z,8.45
2022-10-04T01:45:01.048Z,8.40
2022-10-04T01:47:47.322Z,8.44
2022-10-04T01:50:20.348Z,8.39
2022-10-04T01:53:12.655Z,8.30
2022-10-04T01:55:41.799Z,8.21
2022-10-04T01:58:08.393Z,8.28
2022-10-04T02:00:41.316Z,8.28
2022-10-04T02:03:21.481Z,8.18
2022-10-04T02:05:53.936Z,8.13
2022-10-04T02:08:35.788Z,8.08
2022-10-04T02:11:07.201Z,7.95
2022-10-04T02:13:39.570Z,7.84
2022-10-04T02:16:12.316Z,7.93
2022-10-04T02:18:44.243Z,8.09
2022-10-04T02:21:13.115Z,8.02
2022-10-04T02:23:41.776Z,8.02
2022-10-04T02:26:10.063Z,7.88
2022-10-04T02:28:37.915Z,7.88
2022-10-04T02:31:24.164Z,7.86
2022-10-04T02:33:55.495Z,7.53
2022-10-04T02:36:26.826Z,7.50
2022-10-04T02:39:30.446Z,7.51
2022-10-04T02:42:25.636Z,7.50
2022-10-04T02:45:01.739Z,7.50
2022-10-04T02:47:37.275Z,7.52
2022-10-04T02:50:18.684Z,7.49
2022-10-04T02:52:53.514Z,7.49
2022-10-04T02:55:27.976Z,7.56
2022-10-04T02:57:55.956Z,7.46
2022-10-04T03:00:32.355Z,7.43
2022-10-04T03:03:25.848Z,7.49
2022-10-04T03:06:04.487Z,7.53
2022-10-04T03:08:53.631Z,7.44
2022-10-04T03:11:24.195Z,7.57
2022-10-04T03:13:55.010Z,7.59
2022-10-04T03:16:23.792Z,7.60
2022-10-04T03:18:53.405Z,7.76
2022-10-04T03:21:23.003Z,7.69
2022-10-04T03:23:52.023Z,7.91
2022-10-04T03:26:29.591Z,7.98
2022-10-04T03:28:58.882Z,8.00
2022-10-04T03:31:29.889Z,8.08
2022-10-04T03:33:58.361Z,8.12
2022-10-04T03:36:27.529Z,8.16
2022-10-04T03:38:57.060Z,8.05
2022-10-04T03:41:26.086Z,8.24
2022-10-04T03:43:56.471Z,8.14
2022-10-04T03:46:25.489Z,8.19
2022-10-04T03:48:56.607Z,8.14
2022-10-04T03:51:25.707Z,8.23
2022-10-04T03:53:58.674Z,8.19
2022-10-04T03:56:33.114Z,8.11
2022-10-04T03:59:06.462Z,8.19
2022-10-04T04:01:40.914Z,7.96
2022-10-04T04:04:18.949Z,8.17
2022-10-04T04:07:03.201Z,8.16
2022-10-04T04:09:39.130Z,8.24
2022-10-04T04:12:13.905Z,8.23
2022-10-04T04:14:42.754Z,8.14
2022-10-04T04:17:27.369Z,8.28
2022-10-04T04:20:06.885Z,8.26
2022-10-04T04:22:37.427Z,8.05
2022-10-04T04:25:09.221Z,8.06
2022-10-04T04:27:41.146Z,8.06
2022-10-04T04:30:08.984Z,7.97
2022-10-04T04:32:43.216Z,8.13
2022-10-04T04:35:24.010Z,8.14
2022-10-04T04:38:26.240Z,8.26
2022-10-04T04:40:57.479Z,8.26
2022-10-04T04:43:27.930Z,8.37
2022-10-04T04:46:22.688Z,8.41
2022-10-04T04:48:49.026Z,8.39
2022-10-04T04:51:22.091Z,8.44
2022-10-04T04:53:50.831Z,8.42
2022-10-04T04:56:25.417Z,8.43
2022-10-04T04:58:54.800Z,8.39
2022-10-04T05:01:26.019Z,8.39
2022-10-04T05:04:06.616Z,8.23
2022-10-04T05:06:35.844Z,8.23
2022-10-04T05:09:03.841Z,8.17
2022-10-04T05:11:35.023Z,8.24
2022-10-04T05:14:05.874Z,8.32
2022-10-04T05:16:51.472Z,8.54
2022-10-04T05:19:24.165Z,8.40
2022-10-04T05:21:53.887Z,8.55
2022-10-04T05:24:20.857Z,8.49
2022-10-04T05:26:53.431Z,9.07
2022-10-04T05:29:26.905Z,9.37
2022-10-04T05:32:22.375Z,10.10
2022-10-04T05:34:50.570Z,10.91
2022-10-04T05:37:19.259Z,10.57
2022-10-04T05:39:56.470Z,10.99
2022-10-04T05:42:39.231Z,11.49
2022-10-04T05:45:17.644Z,11.47
2022-10-04T05:47:48.410Z,11.28
2022-10-04T05:50:19.420Z,11.46
2022-10-04T05:52:49.168Z,11.52
2022-10-04T05:55:40.280Z,11.17
2022-10-04T05:58:55.117Z,10.99
2022-10-04T06:01:32.519Z,10.87
2022-10-04T06:04:17.021Z,10.91
2022-10-04T06:06:53.913Z,10.85
2022-10-04T06:09:32.592Z,10.92
2022-10-04T06:12:33.566Z,11.00
2022-10-04T06:15:21.700Z,11.07
2022-10-04T06:18:01.291Z,10.82
2022-10-04T06:20:46.074Z,11.23
2022-10-04T06:23:21.299Z,11.16
2022-10-04T06:25:59.831Z,11.33
2022-10-04T06:28:29.510Z,11.60
2022-10-04T06:30:59.050Z,11.65
2022-10-04T06:34:13.512Z,11.44
2022-10-04T06:37:01.910Z,11.59
2022-10-04T06:39:31.419Z,11.53
2022-10-04T06:42:15.650Z,11.49
2022-10-04T06:44:51.629Z,11.67
2022-10-04T06:47:43.532Z,11.81
2022-10-04T06:50:31.860Z,11.87
2022-10-04T06:53:07.619Z,11.60
2022-10-04T06:56:04.895Z,11.42
2022-10-04T06:58:53.357Z,11.56
2022-10-04T07:01:33.963Z,11.64
2022-10-04T07:04:22.555Z,11.83
2022-10-04T07:07:35.607Z,11.80
2022-10-04T07:10:08.276Z,12.16
2022-10-04T07:12:39.192Z,12.07
2022-10-04T07:15:19.270Z,12.01
2022-10-04T07:17:49.029Z,11.93
2022-10-04T07:20:32.573Z,11.94
2022-10-04T07:23:07.901Z,11.91
2022-10-04T07:25:43.779Z,11.91
2022-10-04T07:28:28.950Z,11.64
2022-10-04T07:31:03.912Z,11.83
2022-10-04T07:33:35.669Z,12.06
2022-10-04T07:36:18.692Z,12.45
2022-10-04T07:39:02.125Z,12.49
2022-10-04T07:41:46.290Z,12.44
2022-10-04T07:44:32.574Z,12.30
2022-10-04T07:47:03.221Z,12.26
2022-10-04T07:49:38.164Z,12.55
2022-10-04T07:52:25.969Z,12.37
2022-10-04T07:55:11.649Z,12.59
2022-10-04T07:57:56.458Z,12.41
2022-10-04T08:00:31.486Z,12.35
2022-10-04T08:03:26.168Z,12.52
2022-10-04T08:06:05.501Z,12.18
2022-10-04T08:09:01.672Z,12.13
2022-10-04T08:11:44.348Z,11.99
2022-10-04T08:14:19.942Z,11.74
2022-10-04T08:16:58.611Z,11.87
2022-10-04T08:19:28.281Z,11.83
2022-10-04T08:22:00.378Z,11.83
2022-10-04T08:24:35.711Z,11.88
2022-10-04T08:27:20.687Z,12.44
2022-10-04T08:30:12.764Z,12.65
2022-10-04T08:32:55.379Z,12.46
2022-10-04T08:35:40.330Z,12.97
2022-10-04T08:38:14.690Z,13.22
2022-10-04T08:41:09.082Z,13.70
2022-10-04T08:44:05.857Z,13.80
2022-10-04T08:46:54.397Z,13.68
2022-10-04T08:50:06.004Z,14.06
2022-10-04T08:53:11.114Z,14.15
2022-10-04T08:56:09.243Z,13.44
2022-10-04T08:58:44.985Z,13.62
2022-10-04T09:01:39.610Z,13.71
2022-10-04T09:04:43.778Z,13.31
2022-10-04T09:08:06.134Z,12.74
2022-10-04T09:10:37.564Z,12.87
2022-10-04T09:13:17.110Z,12.57
2022-10-04T09:15:52.947Z,12.42
2022-10-04T09:18:51.093Z,12.46
2022-10-04T09:21:29.048Z,12.45
2022-10-04T09:24:20.872Z,12.57
2022-10-04T09:27:26.806Z,12.58
2022-10-04T09:30:21.397Z,12.76
2022-10-04T09:33:02.920Z,12.78
2022-10-04T09:36:04.990Z,12.71
2022-10-04T09:38:45.833Z,12.76
2022-10-04T09:41:53.079Z,12.97
2022-10-04T09:44:38.175Z,13.57
2022-10-04T09:47:41.095Z,13.87
2022-10-04T09:50:52.768Z,14.52
2022-10-04T09:53:34.509Z,14.77
2022-10-04T09:56:31.429Z,15.53
2022-10-04T09:59:36.786Z,15.46
2022-10-04T10:02:18.907Z,15.06
2022-10-04T10:05:08.700Z,14.94
2022-10-04T10:07:57.188Z,15.21
2022-10-04T10:11:02.716Z,14.92
2022-10-04T10:13:48.036Z,15.01
2022-10-04T10:16:19.263Z,14.68
2022-10-04T10:18:59.667Z,14.43
2022-10-04T10:22:00.826Z,14.48
2022-10-04T10:24:46.263Z,14.67
2022-10-04T10:27:35.751Z,14.39
2022-10-04T10:30:36.613Z,14.41
2022-10-04T10:33:38.125Z,15.08
2022-10-04T10:36:39.100Z,14.90
2022-10-04T10:39:38.140Z,14.60
2022-10-04T10:42:30.291Z,14.18
2022-10-04T10:45:18.627Z,14.29
2022-10-04T10:48:04.922Z,14.67
2022-10-04T10:50:59.315Z,14.62
2022-10-04T10:53:46.463Z,14.68
2022-10-04T10:56:31.316Z,14.43
2022-10-04T10:59:25.411Z,14.67
2022-10-04T11:02:10.751Z,14.96
2022-10-04T11:05:22.935Z,15.24
2022-10-04T11:07:53.935Z,15.45
2022-10-04T11:10:51.808Z,15.36
2022-10-04T11:13:25.848Z,15.09
2022-10-04T11:16:23.694Z,15.03
2022-10-04T11:19:18.399Z,14.62
2022-10-04T11:22:16.836Z,14.37
2022-10-04T11:24:46.664Z,14.57
2022-10-04T11:27:32.142Z,14.68
2022-10-04T11:30:29.861Z,14.64
2022-10-04T11:33:00.164Z,14.54
2022-10-04T11:35:38.797Z,14.81
2022-10-04T11:38:27.423Z,14.72
2022-10-04T11:41:23.041Z,14.52
2022-10-04T11:44:26.087Z,14.14
2022-10-04T11:47:28.916Z,14.84
2022-10-04T11:50:33.898Z,15.03
2022-10-04T11:53:13.978Z,15.33
2022-10-04T11:56:04.632Z,15.17
2022-10-04T11:58:43.412Z,15.25
2022-10-04T12:01:54.831Z,15.44
2022-10-04T12:04:56.085Z,15.51
2022-10-04T12:07:56.360Z,15.37
2022-10-04T12:10:41.037Z,14.77
2022-10-04T12:13:32.491Z,14.69
2022-10-04T12:16:15.594Z,14.60
2022-10-04T12:18:51.209Z,14.60
2022-10-04T12:21:34.940Z,14.46
2022-10-04T12:24:20.295Z,14.43
2022-10-04T12:27:02.908Z,14.82
2022-10-04T12:29:42.998Z,15.21
2022-10-04T12:32:35.279Z,15.35
2022-10-04T12:35:28.386Z,15.50
2022-10-04T12:38:30.974Z,15.43
2022-10-04T12:41:00.469Z,15.81
2022-10-04T12:43:56.961Z,15.32
2022-10-04T12:46:42.292Z,16.16
2022-10-04T12:49:22.034Z,16.10
2022-10-04T12:52:10.279Z,15.62
2022-10-04T12:54:47.576Z,15.30
2022-10-04T12:57:27.199Z,15.20
2022-10-04T13:00:19.926Z,15.12
2022-10-04T13:03:11.920Z,15.18
2022-10-04T13:05:48.513Z,15.48
2022-10-04T13:08:46.954Z,15.62
2022-10-04T13:11:35.504Z,15.61
2022-10-04T13:14:21.078Z,15.05
2022-10-04T13:17:30.112Z,14.96
2022-10-04T13:20:24.077Z,14.92
2022-10-04T13:23:23.342Z,14.77
2022-10-04T13:26:08.272Z,14.69
2022-10-04T13:29:04.458Z,14.77
2022-10-04T13:31:37.281Z,14.96
2022-10-04T13:34:26.648Z,14.57
2022-10-04T13:37:12.732Z,14.70
2022-10-04T13:39:55.561Z,14.77
2022-10-04T13:42:24.788Z,15.07
2022-10-04T13:45:03.570Z,15.18
2022-10-04T13:47:45.356Z,15.22
2022-10-04T13:50:14.910Z,14.98
2022-10-04T13:53:12.533Z,14.90
2022-10-04T13:56:02.376Z,14.73
2022-10-04T13:58:47.328Z,14.41
2022-10-04T14:01:33.170Z,14.23
2022-10-04T14:04:19.624Z,14.01
2022-10-04T14:07:09.927Z,13.99
2022-10-04T14:10:05.688Z,13.81
2022-10-04T14:12:47.823Z,13.77
2022-10-04T14:15:21.786Z,13.71
2022-10-04T14:18:26.229Z,13.74
2022-10-04T14:21:19.639Z,13.89
2022-10-04T14:24:12.345Z,13.82
2022-10-04T14:27:04.133Z,13.67
2022-10-04T14:29:36.700Z,14.05
2022-10-04T14:32:20.543Z,14.40
2022-10-04T14:34:47.803Z,14.78
2022-10-04T14:37:53.250Z,14.33
2022-10-04T14:40:43.576Z,14.06
2022-10-04T14:43:55.083Z,13.85
2022-10-04T14:47:01.475Z,13.70
2022-10-04T14:49:48.231Z,13.41
2022-10-04T14:52:41.833Z,13.23
2022-10-04T14:55:23.954Z,13.13
2022-10-04T14:58:29.614Z,13.16
2022-10-04T15:01:08.080Z,12.96
2022-10-04T15:03:45.432Z,12.83
2022-10-04T15:06:24.654Z,12.72
2022-10-04T15:09:20.034Z,12.56
2022-10-04T15:12:25.482Z,12.51
2022-10-04T15:15:13.178Z,12.48
2022-10-04T15:17:52.188Z,12.43
2022-10-04T15:20:28.983Z,12.52
2022-10-04T15:23:09.138Z,12.32
2022-10-04T15:25:55.840Z,12.30
2022-10-04T15:28:40.338Z,12.16
2022-10-04T15:31:16.226Z,12.29
2022-10-04T15:34:03.383Z,12.28
2022-10-04T15:36:39.554Z,12.25
2022-10-04T15:39:33.658Z,12.23
2022-10-04T15:42:22.145Z,12.18
2022-10-04T15:45:25.894Z,12.12
2022-10-04T15:47:58.361Z,11.91
2022-10-04T15:50:34.061Z,12.00
2022-10-04T15:53:30.290Z,11.98
2022-10-04T15:56:29.492Z,11.93
2022-10-04T15:59:19.477Z,11.95
2022-10-04T16:02:26.965Z,11.93
2022-10-04T16:05:15.195Z,11.85
2022-10-04T16:08:03.782Z,11.65
2022-10-04T16:11:03.946Z,11.67
2022-10-04T16:13:51.854Z,11.51
2022-10-04T16:16:19.469Z,11.48
2022-10-04T16:19:03.810Z,11.45
2022-10-04T16:21:51.862Z,11.43
2022-10-04T16:24:18.368Z,11.37
2022-10-04T16:26:45.259Z,11.36
2022-10-04T16:29:24.101Z,11.21
2022-10-04T16:31:55.943Z,11.15
2022-10-04T16:34:48.233Z,11.14
2022-10-04T16:37:30.578Z,11.06
2022-10-04T16:40:17.905Z,11.05
2022-10-04T16:42:44.487Z,11.03
2022-10-04T16:45:11.946Z,10.99
2022-10-04T16:47:48.089Z,10.91
2022-10-04T16:50:49.999Z,10.93
2022-10-04T16:53:25.505Z,10.84
2022-10-04T16:55:57.675Z,10.77
2022-10-04T16:58:27.250Z,10.83
2022-10-04T17:01:22.115Z,10.94
2022-10-04T17:04:27.571Z,10.95
2022-10-04T17:07:00.367Z,10.93
2022-10-04T17:09:31.209Z,10.90
2022-10-04T17:12:23.067Z,10.84
2022-10-04T17:15:09.862Z,10.94
2022-10-04T17:17:51.395Z,10.90
2022-10-04T17:20:41.353Z,10.95
2022-10-04T17:23:28.106Z,10.94
2022-10-04T17:26:18.892Z,10.92
2022-10-04T17:29:00.952Z,11.03
2022-10-04T17:31:53.710Z,10.92
2022-10-04T17:35:06.884Z,10.93
2022-10-04T17:37:49.427Z,10.87
2022-10-04T17:40:40.427Z,10.95
2022-10-04T17:43:07.107Z,10.94
2022-10-04T17:46:00.637Z,10.78
2022-10-04T17:49:06.065Z,10.85
2022-10-04T17:51:59.328Z,10.87
2022-10-04T17:54:51.547Z,10.93
2022-10-04T17:57:48.275Z,10.92
2022-10-04T18:00:53.649Z,10.80
2022-10-04T18:03:26.047Z,10.83
2022-10-04T18:05:55.669Z,10.89
2022-10-04T18:08:41.627Z,10.90
2022-10-04T18:11:25.647Z,10.73
2022-10-04T18:14:01.001Z,10.99
2022-10-04T18:17:07.263Z,10.93
2022-10-04T18:19:52.173Z,10.83
2022-10-04T18:22:22.027Z,10.81
2022-10-04T18:25:14.450Z,10.82
2022-10-04T18:28:07.266Z,10.74
2022-10-04T18:30:48.629Z,10.77
2022-10-04T18:33:18.905Z,10.81
2022-10-04T18:36:22.796Z,10.74
2022-10-04T18:39:04.001Z,10.71
2022-10-04T18:41:50.091Z,10.62
2022-10-04T18:44:19.888Z,10.46
2022-10-04T18:46:51.284Z,10.48
2022-10-04T18:49:21.225Z,10.42
2022-10-04T18:51:59.767Z,10.39
2022-10-04T18:54:53.483Z,10.28
2022-10-04T18:57:33.805Z,10.29
2022-10-04T19:00:37.208Z,10.33
2022-10-04T19:03:19.032Z,10.19
2022-10-04T19:06:04.921Z,10.21
2022-10-04T19:08:58.045Z,10.10
2022-10-04T19:11:34.996Z,10.16
2022-10-04T19:14:14.568Z,10.12
2022-10-04T19:16:45.916Z,9.97
2022-10-04T19:19:40.781Z,9.95
2022-10-04T19:22:22.322Z,9.83
2022-10-04T19:25:14.000Z,9.81
2022-10-04T19:28:04.266Z,9.77
2022-10-04T19:30:51.467Z,9.71
2022-10-04T19:33:33.338Z,9.60
2022-10-04T19:36:10.100Z,9.67
2022-10-04T19:39:03.225Z,9.66
2022-10-04T19:41:41.886Z,9.71
2022-10-04T19:44:32.718Z,9.73
2022-10-04T19:47:04.466Z,9.76
2022-10-04T19:49:49.324Z,9.76
2022-10-04T19:52:27.903Z,9.64
2022-10-04T19:55:06.000Z,9.57
2022-10-04T19:57:38.586Z,9.51
2022-10-04T20:00:13.546Z,9.52
2022-10-04T20:02:47.434Z,9.57
2022-10-04T20:05:20.268Z,9.43
2022-10-04T20:07:52.048Z,9.39
2022-10-04T20:10:34.074Z,9.47
2022-10-04T20:13:23.349Z,9.42
2022-10-04T20:15:51.691Z,9.39
2022-10-04T20:18:33.831Z,9.39
2022-10-04T20:21:01.143Z,9.33
2022-10-04T20:23:49.242Z,9.27
2022-10-04T20:26:55.135Z,9.27
2022-10-04T20:29:37.486Z,9.18
2022-10-04T20:32:09.412Z,9.01
2022-10-04T20:34:38.813Z,9.12
2022-10-04T20:37:09.965Z,9.12
2022-10-04T20:39:45.206Z,9.13
2022-10-04T20:42:33.928Z,9.02
2022-10-04T20:45:02.512Z,9.01
2022-10-04T20:47:39.733Z,8.98
2022-10-04T20:50:14.880Z,8.96
2022-10-04T20:52:51.365Z,8.85
2022-10-04T20:55:32.730Z,8.80
2022-10-04T20:58:02.617Z,8.79
2022-10-04T21:00:33.836Z,8.61
2022-10-04T21:03:15.677Z,8.69
2022-10-04T21:05:42.732Z,8.59
2022-10-04T21:08:23.536Z,8.56
2022-10-04T21:11:19.097Z,8.51
2022-10-04T21:13:55.778Z,8.38
2022-10-04T21:16:42.754Z,8.35
2022-10-04T21:19:35.899Z,8.34
2022-10-04T21:22:06.340Z,8.37
2022-10-04T21:24:48.230Z,8.39
2022-10-04T21:27:37.274Z,8.46
2022-10-04T21:30:15.462Z,8.41
2022-10-04T21:32:42.173Z,8.42
2022-10-04T21:35:10.000Z,8.49
2022-10-04T21:37:36.588Z,8.54
2022-10-04T21:40:05.475Z,8.58
2022-10-04T21:42:32.461Z,8.53
2022-10-04T21:44:59.385Z,8.52
2022-10-04T21:47:25.969Z,8.55
2022-10-04T21:49:52.616Z,8.49
2022-10-04T21:52:19.351Z,8.45
2022-10-04T21:54:46.260Z,8.48
2022-10-04T21:57:13.813Z,8.37
2022-10-04T21:59:40.419Z,8.46
2022-10-04T22:02:07.894Z,8.55
2022-10-04T22:04:34.883Z,8.55
2022-10-04T22:07:01.621Z,8.60
2022-10-04T22:09:29.244Z,8.59
2022-10-04T22:11:56.053Z,8.61
2022-10-04T22:14:22.811Z,8.66
2022-10-04T22:16:50.137Z,8.59
2022-10-04T22:19:17.319Z,8.48
2022-10-04T22:21:44.123Z,8.54
2022-10-04T22:24:22.297Z,8.43
2022-10-04T22:26:49.450Z,8.48
2022-10-04T22:29:17.912Z,8.27
2022-10-04T22:31:52.989Z,8.33
2022-10-04T22:34:22.875Z,8.40
2022-10-04T22:36:52.111Z,8.37
2022-10-04T22:39:20.825Z,8.30
2022-10-04T22:41:52.292Z,8.23
2022-10-04T22:44:20.206Z,8.23
2022-10-04T22:46:53.613Z,8.18
2022-10-04T22:49:24.005Z,8.08
2022-10-04T22:51:52.174Z,8.12
2022-10-04T22:54:21.278Z,8.12
2022-10-04T22:56:49.060Z,8.10
2022-10-04T22:59:19.569Z,8.11
2022-10-04T23:01:46.663Z,8.18
2022-10-04T23:04:21.022Z,8.13
2022-10-04T23:06:48.097Z,8.13
2022-10-04T23:09:15.095Z,8.05
2022-10-04T23:11:42.038Z,7.93
2022-10-04T23:14:08.857Z,7.75
2022-10-04T23:16:36.554Z,7.76
2022-10-04T23:19:10.969Z,7.86
2022-10-04T23:21:39.941Z,7.76
2022-10-04T23:24:18.725Z,7.70
2022-10-04T23:26:48.450Z,7.75
2022-10-04T23:29:28.094Z,7.74
2022-10-04T23:31:56.592Z,7.72
2022-10-04T23:34:29.108Z,7.77
2022-10-04T23:36:57.039Z,7.75
2022-10-04T23:39:27.840Z,7.76
2022-10-04T23:41:55.605Z,7.77
2022-10-04T23:44:25.515Z,7.76
2022-10-04T23:46:52.399Z,7.63
2022-10-04T23:49:20.612Z,7.73
2022-10-04T23:51:48.196Z,7.67
2022-10-04T23:54:20.421Z,7.74
2022-10-04T23:56:47.123Z,7.77
2022-10-04T23:59:21.368Z,7.62
